Libby, Minnesota
Current Conditions -  °F | °C
As of 11:34 PM on Saturday 20 Dec 2014 (Local Time) from KAIT Reporting Station
Overcast Overcast  
Wind Chill: 22°   Ceiling: 600
Heat Index: 30°   Visibility: 7mi
Dew Point: 27°   Wind: 9mph
Humidity: 86%   Direction: 170°S
Pressure: 29.99"   Gusts: NA
Location:  46.7281°N, 93.6101°W
Report Text: KAIT 210534Z AUTO 17008KT 7SM OVC006 M01/M03 A2999 RMK AO2
Loading
Personal Weather Stations






























Interactive Weather Map New forecast layout! Learn more

10-Day Weather Forecast

Advertisements
Track Severe Weather on mobile